Broadmeadows, Australia
Current Conditions -  °F | °C
As of 7:00 PM on Saturday 29 Nov 2014 (Local Time) from YMEN Reporting Station
Clear Clear  
Wind Chill: 73°   Ceiling: Unl
Heat Index: 73°   Visibility: 6mi
Dew Point: 61°   Wind: 13mph
Humidity: 65%   Direction: 200°SSW
Pressure: 29.85"   Gusts: NA
Location:  37.68°S, 144.92°E
Report Text: YMEN 290800Z AUTO 20011KT 9999 // NCD 23/16 Q1011
Loading
Personal Weather Stations






























Interactive Weather Map New forecast layout! Learn more

10-Day Weather Forecast

Advertisements
Track Severe Weather on mobile